sensor_id;sensor_type;location;lat;lon;timestamp;P1;durP1;ratioP1;P2;durP2;ratioP2
28848;SDS011;15981;43.292;-2.888;2022-10-10T00:01:19;17.25;;;6.80;;
28848;SDS011;15981;43.292;-2.888;2022-10-10T00:03:45;20.63;;;7.35;;
28848;SDS011;15981;43.292;-2.888;2022-10-10T00:06:11;20.00;;;7.10;;
28848;SDS011;15981;43.292;-2.888;2022-10-10T00:08:37;19.00;;;7.78;;
28848;SDS011;15981;43.292;-2.888;2022-10-10T00:11:03;17.10;;;7.38;;
28848;SDS011;15981;43.292;-2.888;2022-10-10T00:13:29;19.23;;;6.88;;
28848;SDS011;15981;43.292;-2.888;2022-10-10T00:15:55;16.75;;;6.18;;
28848;SDS011;15981;43.292;-2.888;2022-10-10T00:18:21;16.20;;;6.93;;
28848;SDS011;15981;43.292;-2.888;2022-10-10T00:20:48;17.35;;;6.88;;
28848;SDS011;15981;43.292;-2.888;2022-10-10T00:23:14;18.13;;;7.28;;
28848;SDS011;15981;43.292;-2.888;2022-10-10T00:25:40;13.05;;;6.10;;
28848;SDS011;15981;43.292;-2.888;2022-10-10T00:28:05;17.50;;;7.05;;
28848;SDS011;15981;43.292;-2.888;2022-10-10T00:30:31;19.13;;;7.00;;
28848;SDS011;15981;43.292;-2.888;2022-10-10T00:32:57;15.98;;;6.25;;
28848;SDS011;15981;43.292;-2.888;2022-10-10T00:35:23;15.10;;;6.38;;
28848;SDS011;15981;43.292;-2.888;2022-10-10T00:37:49;14.68;;;5.97;;
28848;SDS011;15981;43.292;-2.888;2022-10-10T00:40:15;16.48;;;6.35;;
28848;SDS011;15981;43.292;-2.888;2022-10-10T00:42:41;15.27;;;6.65;;
28848;SDS011;15981;43.292;-2.888;2022-10-10T00:47:51;18.80;;;6.10;;
28848;SDS011;15981;43.292;-2.888;2022-10-10T00:50:18;16.05;;;6.20;;
28848;SDS011;15981;43.292;-2.888;2022-10-10T00:52:44;21.77;;;6.97;;
28848;SDS011;15981;43.292;-2.888;2022-10-10T00:55:10;18.05;;;6.50;;
28848;SDS011;15981;43.292;-2.888;2022-10-10T00:57:37;19.00;;;7.00;;
28848;SDS011;15981;43.292;-2.888;2022-10-10T01:00:04;17.17;;;7.32;;
28848;SDS011;15981;43.292;-2.888;2022-10-10T01:02:30;13.45;;;6.70;;
28848;SDS011;15981;43.292;-2.888;2022-10-10T01:04:56;20.13;;;7.45;;
28848;SDS011;15981;43.292;-2.888;2022-10-10T01:07:22;21.33;;;7.00;;
28848;SDS011;15981;43.292;-2.888;2022-10-10T01:09:49;17.40;;;6.95;;
28848;SDS011;15981;43.292;-2.888;2022-10-10T01:15:01;17.70;;;6.63;;
28848;SDS011;15981;43.292;-2.888;2022-10-10T01:22:48;12.75;;;6.13;;
28848;SDS011;15981;43.292;-2.888;2022-10-10T01:27:46;14.15;;;6.20;;
28848;SDS011;15981;43.292;-2.888;2022-10-10T01:30:16;14.27;;;5.97;;
28848;SDS011;15981;43.292;-2.888;2022-10-10T01:35:27;13.75;;;5.82;;
28848;SDS011;15981;43.292;-2.888;2022-10-10T01:38:07;16.38;;;6.47;;
28848;SDS011;15981;43.292;-2.888;2022-10-10T01:43:03;15.43;;;7.15;;
28848;SDS011;15981;43.292;-2.888;2022-10-10T01:45:30;18.42;;;6.78;;
28848;SDS011;15981;43.292;-2.888;2022-10-10T01:47:57;18.23;;;6.20;;
28848;SDS011;15981;43.292;-2.888;2022-10-10T01:50:24;16.25;;;6.53;;
28848;SDS011;15981;43.292;-2.888;2022-10-10T02:00:23;12.80;;;6.20;;
28848;SDS011;15981;43.292;-2.888;2022-10-10T02:02:51;14.13;;;6.07;;
28848;SDS011;15981;43.292;-2.888;2022-10-10T02:05:31;14.40;;;6.60;;
28848;SDS011;15981;43.292;-2.888;2022-10-10T02:08:02;13.25;;;6.32;;
28848;SDS011;15981;43.292;-2.888;2022-10-10T02:10:30;12.48;;;5.65;;
28848;SDS011;15981;43.292;-2.888;2022-10-10T02:12:56;15.00;;;6.82;;
28848;SDS011;15981;43.292;-2.888;2022-10-10T02:15:24;13.95;;;6.20;;
28848;SDS011;15981;43.292;-2.888;2022-10-10T02:17:51;16.63;;;6.85;;
28848;SDS011;15981;43.292;-2.888;2022-10-10T02:20:18;16.75;;;6.15;;
28848;SDS011;15981;43.292;-2.888;2022-10-10T02:22:45;15.45;;;5.90;;
28848;SDS011;15981;43.292;-2.888;2022-10-10T02:25:11;16.00;;;6.82;;
28848;SDS011;15981;43.292;-2.888;2022-10-10T02:27:44;13.82;;;6.13;;
28848;SDS011;15981;43.292;-2.888;2022-10-10T02:30:11;19.02;;;6.82;;
28848;SDS011;15981;43.292;-2.888;2022-10-10T02:32:45;17.88;;;6.63;;
28848;SDS011;15981;43.292;-2.888;2022-10-10T02:35:13;20.05;;;6.70;;
28848;SDS011;15981;43.292;-2.888;2022-10-10T02:37:39;14.05;;;6.22;;
28848;SDS011;15981;43.292;-2.888;2022-10-10T02:40:06;16.70;;;6.90;;
28848;SDS011;15981;43.292;-2.888;2022-10-10T02:42:33;16.45;;;6.60;;
28848;SDS011;15981;43.292;-2.888;2022-10-10T02:44:59;16.58;;;6.43;;
28848;SDS011;15981;43.292;-2.888;2022-10-10T02:47:26;18.90;;;7.30;;
28848;SDS011;15981;43.292;-2.888;2022-10-10T02:49:51;13.20;;;6.38;;
28848;SDS011;15981;43.292;-2.888;2022-10-10T02:52:17;19.42;;;6.72;;
28848;SDS011;15981;43.292;-2.888;2022-10-10T02:54:43;15.13;;;6.30;;
28848;SDS011;15981;43.292;-2.888;2022-10-10T02:57:09;18.02;;;6.18;;
28848;SDS011;15981;43.292;-2.888;2022-10-10T02:59:35;14.48;;;6.55;;
28848;SDS011;15981;43.292;-2.888;2022-10-10T03:02:00;19.33;;;6.13;;
28848;SDS011;15981;43.292;-2.888;2022-10-10T03:04:26;15.73;;;6.75;;
28848;SDS011;15981;43.292;-2.888;2022-10-10T03:06:53;13.18;;;5.97;;
28848;SDS011;15981;43.292;-2.888;2022-10-10T03:09:19;18.05;;;6.70;;
28848;SDS011;15981;43.292;-2.888;2022-10-10T03:11:44;15.50;;;6.80;;
28848;SDS011;15981;43.292;-2.888;2022-10-10T03:14:10;19.70;;;6.63;;
28848;SDS011;15981;43.292;-2.888;2022-10-10T03:16:36;15.85;;;7.28;;
28848;SDS011;15981;43.292;-2.888;2022-10-10T03:19:02;15.48;;;6.72;;
28848;SDS011;15981;43.292;-2.888;2022-10-10T03:21:28;16.55;;;6.63;;
28848;SDS011;15981;43.292;-2.888;2022-10-10T03:23:54;17.67;;;7.10;;
28848;SDS011;15981;43.292;-2.888;2022-10-10T03:26:19;17.10;;;6.75;;
28848;SDS011;15981;43.292;-2.888;2022-10-10T03:28:45;17.60;;;6.53;;
28848;SDS011;15981;43.292;-2.888;2022-10-10T03:31:11;25.80;;;7.57;;
28848;SDS011;15981;43.292;-2.888;2022-10-10T03:33:36;17.23;;;6.38;;
28848;SDS011;15981;43.292;-2.888;2022-10-10T03:36:02;14.05;;;5.68;;
28848;SDS011;15981;43.292;-2.888;2022-10-10T03:38:28;14.85;;;6.20;;
28848;SDS011;15981;43.292;-2.888;2022-10-10T03:40:54;16.52;;;6.43;;
28848;SDS011;15981;43.292;-2.888;2022-10-10T03:43:19;14.20;;;5.90;;
28848;SDS011;15981;43.292;-2.888;2022-10-10T03:45:46;13.27;;;6.68;;
28848;SDS011;15981;43.292;-2.888;2022-10-10T03:48:12;18.00;;;6.38;;
28848;SDS011;15981;43.292;-2.888;2022-10-10T03:50:38;15.98;;;6.43;;
28848;SDS011;15981;43.292;-2.888;2022-10-10T03:53:04;15.90;;;6.78;;
28848;SDS011;15981;43.292;-2.888;2022-10-10T03:55:30;13.25;;;5.88;;
28848;SDS011;15981;43.292;-2.888;2022-10-10T03:57:56;18.77;;;7.28;;
28848;SDS011;15981;43.292;-2.888;2022-10-10T04:00:21;18.10;;;6.80;;
28848;SDS011;15981;43.292;-2.888;2022-10-10T04:02:47;20.13;;;6.93;;
28848;SDS011;15981;43.292;-2.888;2022-10-10T04:05:13;17.02;;;7.10;;
28848;SDS011;15981;43.292;-2.888;2022-10-10T04:07:38;20.58;;;7.28;;
28848;SDS011;15981;43.292;-2.888;2022-10-10T04:10:06;18.40;;;6.68;;
28848;SDS011;15981;43.292;-2.888;2022-10-10T04:12:32;16.95;;;6.60;;
28848;SDS011;15981;43.292;-2.888;2022-10-10T04:14:58;17.02;;;7.05;;
28848;SDS011;15981;43.292;-2.888;2022-10-10T04:17:23;15.85;;;7.25;;
28848;SDS011;15981;43.292;-2.888;2022-10-10T04:19:49;16.63;;;7.03;;
28848;SDS011;15981;43.292;-2.888;2022-10-10T04:22:15;15.45;;;7.10;;
28848;SDS011;15981;43.292;-2.888;2022-10-10T04:24:41;14.00;;;6.32;;
28848;SDS011;15981;43.292;-2.888;2022-10-10T04:27:06;18.77;;;6.75;;
28848;SDS011;15981;43.292;-2.888;2022-10-10T04:29:32;12.38;;;5.93;;
28848;SDS011;15981;43.292;-2.888;2022-10-10T04:31:58;21.90;;;7.53;;
28848;SDS011;15981;43.292;-2.888;2022-10-10T04:34:23;17.77;;;6.95;;
28848;SDS011;15981;43.292;-2.888;2022-10-10T04:36:49;20.92;;;7.72;;
28848;SDS011;15981;43.292;-2.888;2022-10-10T04:39:15;14.52;;;7.40;;
28848;SDS011;15981;43.292;-2.888;2022-10-10T04:41:41;15.90;;;7.43;;
28848;SDS011;15981;43.292;-2.888;2022-10-10T04:44:06;20.92;;;7.85;;
28848;SDS011;15981;43.292;-2.888;2022-10-10T04:46:32;16.38;;;7.03;;
28848;SDS011;15981;43.292;-2.888;2022-10-10T04:48:58;18.48;;;8.25;;
28848;SDS011;15981;43.292;-2.888;2022-10-10T04:51:23;20.08;;;7.88;;
28848;SDS011;15981;43.292;-2.888;2022-10-10T04:53:49;23.35;;;9.68;;
28848;SDS011;15981;43.292;-2.888;2022-10-10T04:56:15;17.05;;;7.60;;
28848;SDS011;15981;43.292;-2.888;2022-10-10T04:58:41;21.95;;;8.55;;
28848;SDS011;15981;43.292;-2.888;2022-10-10T05:01:06;18.80;;;7.63;;
28848;SDS011;15981;43.292;-2.888;2022-10-10T05:03:32;17.83;;;7.90;;
28848;SDS011;15981;43.292;-2.888;2022-10-10T05:05:58;17.50;;;7.60;;
28848;SDS011;15981;43.292;-2.888;2022-10-10T05:08:24;20.90;;;7.65;;
28848;SDS011;15981;43.292;-2.888;2022-10-10T05:10:50;20.00;;;8.05;;
28848;SDS011;15981;43.292;-2.888;2022-10-10T05:13:16;19.02;;;8.05;;
28848;SDS011;15981;43.292;-2.888;2022-10-10T05:15:42;16.73;;;7.43;;
28848;SDS011;15981;43.292;-2.888;2022-10-10T05:18:08;15.10;;;7.45;;
28848;SDS011;15981;43.292;-2.888;2022-10-10T05:20:34;17.05;;;7.47;;
28848;SDS011;15981;43.292;-2.888;2022-10-10T05:23:00;18.17;;;8.20;;
28848;SDS011;15981;43.292;-2.888;2022-10-10T05:25:26;19.50;;;8.18;;
28848;SDS011;15981;43.292;-2.888;2022-10-10T05:27:52;17.17;;;7.60;;
28848;SDS011;15981;43.292;-2.888;2022-10-10T05:30:17;22.25;;;8.35;;
28848;SDS011;15981;43.292;-2.888;2022-10-10T05:32:43;15.85;;;8.00;;
28848;SDS011;15981;43.292;-2.888;2022-10-10T05:35:09;21.02;;;8.30;;
28848;SDS011;15981;43.292;-2.888;2022-10-10T05:37:35;19.00;;;8.73;;
28848;SDS011;15981;43.292;-2.888;2022-10-10T05:40:00;17.38;;;7.63;;
28848;SDS011;15981;43.292;-2.888;2022-10-10T05:42:26;17.17;;;8.50;;
28848;SDS011;15981;43.292;-2.888;2022-10-10T05:44:52;19.58;;;8.50;;
28848;SDS011;15981;43.292;-2.888;2022-10-10T05:47:17;22.60;;;8.85;;
28848;SDS011;15981;43.292;-2.888;2022-10-10T05:49:43;18.95;;;8.48;;
28848;SDS011;15981;43.292;-2.888;2022-10-10T05:52:09;19.05;;;8.15;;
28848;SDS011;15981;43.292;-2.888;2022-10-10T05:54:35;17.13;;;8.02;;
28848;SDS011;15981;43.292;-2.888;2022-10-10T05:57:00;20.55;;;8.38;;
28848;SDS011;15981;43.292;-2.888;2022-10-10T05:59:29;15.73;;;7.97;;
28848;SDS011;15981;43.292;-2.888;2022-10-10T06:01:55;18.45;;;8.55;;
28848;SDS011;15981;43.292;-2.888;2022-10-10T06:04:21;19.95;;;9.02;;
28848;SDS011;15981;43.292;-2.888;2022-10-10T06:06:47;19.25;;;9.07;;
28848;SDS011;15981;43.292;-2.888;2022-10-10T06:09:13;26.02;;;10.13;;
28848;SDS011;15981;43.292;-2.888;2022-10-10T06:11:39;24.42;;;10.43;;
28848;SDS011;15981;43.292;-2.888;2022-10-10T06:14:05;25.17;;;11.05;;
28848;SDS011;15981;43.292;-2.888;2022-10-10T06:16:30;23.45;;;10.32;;
28848;SDS011;15981;43.292;-2.888;2022-10-10T06:18:56;19.95;;;9.82;;
28848;SDS011;15981;43.292;-2.888;2022-10-10T06:21:22;22.77;;;9.77;;
28848;SDS011;15981;43.292;-2.888;2022-10-10T06:23:48;26.10;;;11.18;;
28848;SDS011;15981;43.292;-2.888;2022-10-10T06:26:14;25.50;;;9.70;;
28848;SDS011;15981;43.292;-2.888;2022-10-10T06:28:40;22.52;;;10.23;;
28848;SDS011;15981;43.292;-2.888;2022-10-10T06:31:07;20.25;;;9.88;;
28848;SDS011;15981;43.292;-2.888;2022-10-10T06:33:33;24.35;;;9.45;;
28848;SDS011;15981;43.292;-2.888;2022-10-10T06:36:02;21.17;;;10.00;;
28848;SDS011;15981;43.292;-2.888;2022-10-10T06:38:28;20.50;;;10.27;;
28848;SDS011;15981;43.292;-2.888;2022-10-10T06:40:53;21.88;;;9.77;;
28848;SDS011;15981;43.292;-2.888;2022-10-10T06:43:19;22.02;;;9.50;;
28848;SDS011;15981;43.292;-2.888;2022-10-10T06:45:45;21.35;;;10.25;;
28848;SDS011;15981;43.292;-2.888;2022-10-10T06:48:14;23.80;;;10.02;;
28848;SDS011;15981;43.292;-2.888;2022-10-10T06:50:39;19.65;;;10.32;;
28848;SDS011;15981;43.292;-2.888;2022-10-10T06:53:05;19.10;;;10.30;;
28848;SDS011;15981;43.292;-2.888;2022-10-10T06:55:31;23.27;;;11.32;;
28848;SDS011;15981;43.292;-2.888;2022-10-10T06:57:57;23.67;;;10.25;;
28848;SDS011;15981;43.292;-2.888;2022-10-10T07:00:23;18.70;;;9.90;;
28848;SDS011;15981;43.292;-2.888;2022-10-10T07:02:48;19.48;;;9.65;;
28848;SDS011;15981;43.292;-2.888;2022-10-10T07:05:15;22.33;;;11.07;;
28848;SDS011;15981;43.292;-2.888;2022-10-10T07:07:41;21.20;;;10.25;;
28848;SDS011;15981;43.292;-2.888;2022-10-10T07:10:09;18.00;;;10.00;;
28848;SDS011;15981;43.292;-2.888;2022-10-10T07:12:35;18.00;;;10.50;;
28848;SDS011;15981;43.292;-2.888;2022-10-10T07:15:03;19.70;;;10.15;;
28848;SDS011;15981;43.292;-2.888;2022-10-10T07:17:28;22.10;;;11.57;;
28848;SDS011;15981;43.292;-2.888;2022-10-10T07:19:55;22.55;;;11.57;;
28848;SDS011;15981;43.292;-2.888;2022-10-10T07:22:21;23.02;;;11.18;;
28848;SDS011;15981;43.292;-2.888;2022-10-10T07:24:47;23.52;;;11.18;;
28848;SDS011;15981;43.292;-2.888;2022-10-10T07:27:13;21.63;;;11.00;;
28848;SDS011;15981;43.292;-2.888;2022-10-10T07:29:38;25.05;;;11.00;;
28848;SDS011;15981;43.292;-2.888;2022-10-10T07:32:04;23.33;;;11.02;;
28848;SDS011;15981;43.292;-2.888;2022-10-10T07:34:30;18.88;;;10.90;;
28848;SDS011;15981;43.292;-2.888;2022-10-10T07:36:56;25.02;;;11.52;;
28848;SDS011;15981;43.292;-2.888;2022-10-10T07:39:22;26.08;;;10.45;;
28848;SDS011;15981;43.292;-2.888;2022-10-10T07:41:48;24.52;;;11.38;;
28848;SDS011;15981;43.292;-2.888;2022-10-10T07:44:15;19.90;;;10.48;;
28848;SDS011;15981;43.292;-2.888;2022-10-10T07:46:41;24.08;;;9.85;;
28848;SDS011;15981;43.292;-2.888;2022-10-10T07:49:06;20.65;;;9.40;;
28848;SDS011;15981;43.292;-2.888;2022-10-10T07:51:33;19.35;;;9.25;;
28848;SDS011;15981;43.292;-2.888;2022-10-10T07:53:59;18.13;;;8.75;;
28848;SDS011;15981;43.292;-2.888;2022-10-10T07:56:24;21.08;;;9.05;;
28848;SDS011;15981;43.292;-2.888;2022-10-10T07:58:50;15.45;;;8.15;;
28848;SDS011;15981;43.292;-2.888;2022-10-10T08:01:16;19.88;;;9.60;;
28848;SDS011;15981;43.292;-2.888;2022-10-10T08:03:42;16.92;;;8.48;;
28848;SDS011;15981;43.292;-2.888;2022-10-10T08:06:09;16.20;;;8.20;;
28848;SDS011;15981;43.292;-2.888;2022-10-10T08:08:36;17.80;;;8.63;;
28848;SDS011;15981;43.292;-2.888;2022-10-10T08:11:03;21.48;;;8.65;;
28848;SDS011;15981;43.292;-2.888;2022-10-10T08:13:29;16.05;;;7.53;;
28848;SDS011;15981;43.292;-2.888;2022-10-10T08:15:54;13.13;;;7.25;;
28848;SDS011;15981;43.292;-2.888;2022-10-10T08:18:20;18.58;;;7.53;;
28848;SDS011;15981;43.292;-2.888;2022-10-10T08:20:46;15.88;;;7.15;;
28848;SDS011;15981;43.292;-2.888;2022-10-10T08:23:11;12.82;;;6.78;;
28848;SDS011;15981;43.292;-2.888;2022-10-10T08:25:37;13.43;;;6.75;;
28848;SDS011;15981;43.292;-2.888;2022-10-10T08:28:03;13.00;;;6.63;;
28848;SDS011;15981;43.292;-2.888;2022-10-10T08:30:29;12.45;;;6.63;;
28848;SDS011;15981;43.292;-2.888;2022-10-10T08:32:55;16.05;;;6.35;;
28848;SDS011;15981;43.292;-2.888;2022-10-10T08:35:21;27.70;;;14.05;;
28848;SDS011;15981;43.292;-2.888;2022-10-10T08:37:47;66.75;;;34.97;;
28848;SDS011;15981;43.292;-2.888;2022-10-10T08:40:15;53.03;;;28.23;;
28848;SDS011;15981;43.292;-2.888;2022-10-10T08:42:45;26.85;;;14.15;;
28848;SDS011;15981;43.292;-2.888;2022-10-10T08:45:13;31.60;;;16.67;;
28848;SDS011;15981;43.292;-2.888;2022-10-10T08:47:50;36.75;;;18.98;;
28848;SDS011;15981;43.292;-2.888;2022-10-10T08:50:20;37.90;;;20.23;;
28848;SDS011;15981;43.292;-2.888;2022-10-10T08:52:48;36.78;;;18.90;;
28848;SDS011;15981;43.292;-2.888;2022-10-10T09:00:11;138.82;;;82.82;;
28848;SDS011;15981;43.292;-2.888;2022-10-10T09:03:14;201.25;;;119.78;;
28848;SDS011;15981;43.292;-2.888;2022-10-10T09:08:11;146.05;;;85.13;;
28848;SDS011;15981;43.292;-2.888;2022-10-10T09:15:46;76.53;;;46.60;;
28848;SDS011;15981;43.292;-2.888;2022-10-10T09:18:17;52.20;;;30.98;;
28848;SDS011;15981;43.292;-2.888;2022-10-10T09:23:24;65.82;;;37.15;;
28848;SDS011;15981;43.292;-2.888;2022-10-10T09:29:04;54.25;;;29.70;;
28848;SDS011;15981;43.292;-2.888;2022-10-10T09:31:04;32.42;;;19.17;;
28848;SDS011;15981;43.292;-2.888;2022-10-10T09:33:40;13.75;;;6.43;;
28848;SDS011;15981;43.292;-2.888;2022-10-10T09:36:09;27.02;;;15.10;;
28848;SDS011;15981;43.292;-2.888;2022-10-10T09:38:45;21.08;;;10.65;;
28848;SDS011;15981;43.292;-2.888;2022-10-10T09:41:14;14.93;;;8.85;;
28848;SDS011;15981;43.292;-2.888;2022-10-10T09:43:41;14.07;;;7.55;;
28848;SDS011;15981;43.292;-2.888;2022-10-10T09:46:07;14.98;;;6.90;;
28848;SDS011;15981;43.292;-2.888;2022-10-10T09:48:35;15.32;;;6.28;;
28848;SDS011;15981;43.292;-2.888;2022-10-10T09:51:02;11.85;;;5.65;;
28848;SDS011;15981;43.292;-2.888;2022-10-10T09:53:28;11.18;;;5.72;;
28848;SDS011;15981;43.292;-2.888;2022-10-10T09:55:54;14.98;;;6.43;;
28848;SDS011;15981;43.292;-2.888;2022-10-10T10:00:45;13.88;;;5.70;;
28848;SDS011;15981;43.292;-2.888;2022-10-10T10:03:15;10.10;;;5.47;;
28848;SDS011;15981;43.292;-2.888;2022-10-10T10:08:40;11.13;;;5.13;;
28848;SDS011;15981;43.292;-2.888;2022-10-10T10:11:26;7.75;;;4.60;;
28848;SDS011;15981;43.292;-2.888;2022-10-10T10:13:52;10.52;;;4.90;;
28848;SDS011;15981;43.292;-2.888;2022-10-10T10:16:18;9.52;;;4.88;;
28848;SDS011;15981;43.292;-2.888;2022-10-10T10:18:45;9.63;;;4.22;;
28848;SDS011;15981;43.292;-2.888;2022-10-10T10:21:18;7.00;;;3.88;;
28848;SDS011;15981;43.292;-2.888;2022-10-10T10:28:41;6.90;;;4.15;;
28848;SDS011;15981;43.292;-2.888;2022-10-10T10:31:12;8.40;;;4.20;;
28848;SDS011;15981;43.292;-2.888;2022-10-10T10:33:43;12.75;;;4.35;;
28848;SDS011;15981;43.292;-2.888;2022-10-10T10:36:18;11.13;;;4.22;;
28848;SDS011;15981;43.292;-2.888;2022-10-10T10:38:50;8.80;;;3.75;;
28848;SDS011;15981;43.292;-2.888;2022-10-10T10:41:19;9.63;;;4.40;;
28848;SDS011;15981;43.292;-2.888;2022-10-10T10:49:05;8.20;;;3.20;;
28848;SDS011;15981;43.292;-2.888;2022-10-10T10:56:52;8.65;;;3.30;;
28848;SDS011;15981;43.292;-2.888;2022-10-10T11:12:45;8.32;;;3.05;;
28848;SDS011;15981;43.292;-2.888;2022-10-10T11:17:32;14.48;;;4.38;;
28848;SDS011;15981;43.292;-2.888;2022-10-10T11:22:38;38.97;;;21.30;;
28848;SDS011;15981;43.292;-2.888;2022-10-10T11:27:33;37.95;;;22.58;;
28848;SDS011;15981;43.292;-2.888;2022-10-10T11:30:16;46.42;;;22.13;;
28848;SDS011;15981;43.292;-2.888;2022-10-10T11:32:58;39.63;;;20.88;;
28848;SDS011;15981;43.292;-2.888;2022-10-10T11:38:36;18.23;;;10.50;;
28848;SDS011;15981;43.292;-2.888;2022-10-10T11:43:24;17.63;;;6.57;;
28848;SDS011;15981;43.292;-2.888;2022-10-10T11:45:53;13.68;;;6.18;;
28848;SDS011;15981;43.292;-2.888;2022-10-10T11:48:22;9.60;;;4.60;;
28848;SDS011;15981;43.292;-2.888;2022-10-10T11:50:57;10.25;;;4.22;;
28848;SDS011;15981;43.292;-2.888;2022-10-10T11:53:40;9.65;;;3.58;;
28848;SDS011;15981;43.292;-2.888;2022-10-10T11:58:54;10.73;;;3.97;;
28848;SDS011;15981;43.292;-2.888;2022-10-10T12:01:36;7.15;;;3.72;;
28848;SDS011;15981;43.292;-2.888;2022-10-10T12:04:03;5.72;;;3.60;;
28848;SDS011;15981;43.292;-2.888;2022-10-10T12:06:43;6.85;;;3.30;;
28848;SDS011;15981;43.292;-2.888;2022-10-10T12:11:39;10.05;;;3.42;;
28848;SDS011;15981;43.292;-2.888;2022-10-10T12:14:08;5.90;;;3.65;;
28848;SDS011;15981;43.292;-2.888;2022-10-10T12:16:36;8.07;;;3.80;;
28848;SDS011;15981;43.292;-2.888;2022-10-10T12:19:07;6.47;;;3.90;;
28848;SDS011;15981;43.292;-2.888;2022-10-10T12:24:16;7.30;;;3.80;;
28848;SDS011;15981;43.292;-2.888;2022-10-10T12:34:39;6.72;;;3.92;;
28848;SDS011;15981;43.292;-2.888;2022-10-10T12:37:10;7.50;;;3.90;;
28848;SDS011;15981;43.292;-2.888;2022-10-10T12:39:59;10.02;;;3.95;;
28848;SDS011;15981;43.292;-2.888;2022-10-10T12:42:30;5.25;;;3.50;;
28848;SDS011;15981;43.292;-2.888;2022-10-10T12:44:56;12.40;;;4.95;;
28848;SDS011;15981;43.292;-2.888;2022-10-10T12:47:26;12.75;;;5.88;;
28848;SDS011;15981;43.292;-2.888;2022-10-10T12:50:02;14.38;;;5.88;;
28848;SDS011;15981;43.292;-2.888;2022-10-10T12:52:29;13.88;;;5.72;;
28848;SDS011;15981;43.292;-2.888;2022-10-10T12:58:02;16.52;;;5.55;;
28848;SDS011;15981;43.292;-2.888;2022-10-10T13:01:02;11.73;;;5.60;;
28848;SDS011;15981;43.292;-2.888;2022-10-10T13:03:26;17.30;;;6.03;;
28848;SDS011;15981;43.292;-2.888;2022-10-10T13:05:52;13.07;;;4.93;;
28848;SDS011;15981;43.292;-2.888;2022-10-10T13:08:21;14.23;;;5.53;;
28848;SDS011;15981;43.292;-2.888;2022-10-10T13:11:02;16.00;;;6.18;;
28848;SDS011;15981;43.292;-2.888;2022-10-10T13:13:28;19.83;;;6.47;;
28848;SDS011;15981;43.292;-2.888;2022-10-10T13:15:55;17.10;;;7.30;;
28848;SDS011;15981;43.292;-2.888;2022-10-10T13:20:59;21.95;;;7.45;;
28848;SDS011;15981;43.292;-2.888;2022-10-10T13:23:25;20.73;;;8.18;;
28848;SDS011;15981;43.292;-2.888;2022-10-10T13:25:51;18.80;;;7.72;;
28848;SDS011;15981;43.292;-2.888;2022-10-10T13:28:17;23.08;;;7.97;;
28848;SDS011;15981;43.292;-2.888;2022-10-10T13:30:43;23.65;;;9.75;;
28848;SDS011;15981;43.292;-2.888;2022-10-10T13:33:19;20.48;;;9.18;;
28848;SDS011;15981;43.292;-2.888;2022-10-10T13:35:46;20.38;;;9.35;;
28848;SDS011;15981;43.292;-2.888;2022-10-10T13:38:12;26.23;;;10.02;;
28848;SDS011;15981;43.292;-2.888;2022-10-10T13:40:41;24.00;;;10.40;;
28848;SDS011;15981;43.292;-2.888;2022-10-10T13:43:17;24.58;;;11.20;;
28848;SDS011;15981;43.292;-2.888;2022-10-10T13:46:04;21.83;;;10.93;;
28848;SDS011;15981;43.292;-2.888;2022-10-10T13:48:38;22.50;;;10.90;;
28848;SDS011;15981;43.292;-2.888;2022-10-10T13:53:30;21.70;;;10.15;;
28848;SDS011;15981;43.292;-2.888;2022-10-10T13:56:09;24.05;;;10.48;;
28848;SDS011;15981;43.292;-2.888;2022-10-10T13:58:43;25.83;;;10.77;;
28848;SDS011;15981;43.292;-2.888;2022-10-10T14:01:18;25.05;;;10.60;;
28848;SDS011;15981;43.292;-2.888;2022-10-10T14:03:45;23.77;;;10.88;;
28848;SDS011;15981;43.292;-2.888;2022-10-10T14:06:16;23.15;;;10.75;;
28848;SDS011;15981;43.292;-2.888;2022-10-10T14:08:42;20.95;;;10.18;;
28848;SDS011;15981;43.292;-2.888;2022-10-10T14:11:07;21.30;;;10.35;;
28848;SDS011;15981;43.292;-2.888;2022-10-10T14:13:39;21.45;;;10.27;;
28848;SDS011;15981;43.292;-2.888;2022-10-10T14:18:35;23.77;;;9.90;;
28848;SDS011;15981;43.292;-2.888;2022-10-10T14:21:01;26.23;;;10.07;;
28848;SDS011;15981;43.292;-2.888;2022-10-10T14:23:27;21.13;;;9.82;;
28848;SDS011;15981;43.292;-2.888;2022-10-10T14:25:53;26.23;;;9.80;;
28848;SDS011;15981;43.292;-2.888;2022-10-10T14:28:20;25.13;;;10.43;;
28848;SDS011;15981;43.292;-2.888;2022-10-10T14:30:46;25.35;;;10.20;;
28848;SDS011;15981;43.292;-2.888;2022-10-10T14:33:13;23.85;;;9.88;;
28848;SDS011;15981;43.292;-2.888;2022-10-10T14:35:39;23.08;;;9.15;;
28848;SDS011;15981;43.292;-2.888;2022-10-10T14:38:06;22.25;;;9.55;;
28848;SDS011;15981;43.292;-2.888;2022-10-10T14:40:35;24.42;;;10.02;;
28848;SDS011;15981;43.292;-2.888;2022-10-10T14:43:01;19.75;;;9.13;;
28848;SDS011;15981;43.292;-2.888;2022-10-10T14:45:27;24.25;;;9.50;;
28848;SDS011;15981;43.292;-2.888;2022-10-10T14:47:53;17.73;;;9.10;;
28848;SDS011;15981;43.292;-2.888;2022-10-10T14:50:20;20.48;;;9.32;;
28848;SDS011;15981;43.292;-2.888;2022-10-10T14:52:46;22.45;;;9.43;;
28848;SDS011;15981;43.292;-2.888;2022-10-10T14:55:12;19.50;;;9.70;;
28848;SDS011;15981;43.292;-2.888;2022-10-10T14:57:38;22.95;;;9.77;;
28848;SDS011;15981;43.292;-2.888;2022-10-10T15:00:04;18.90;;;8.80;;
28848;SDS011;15981;43.292;-2.888;2022-10-10T15:02:30;21.05;;;9.32;;
28848;SDS011;15981;43.292;-2.888;2022-10-10T15:04:56;25.02;;;10.27;;
28848;SDS011;15981;43.292;-2.888;2022-10-10T15:07:22;26.90;;;9.73;;
28848;SDS011;15981;43.292;-2.888;2022-10-10T15:09:48;26.90;;;10.02;;
28848;SDS011;15981;43.292;-2.888;2022-10-10T15:12:14;23.63;;;10.10;;
28848;SDS011;15981;43.292;-2.888;2022-10-10T15:14:40;26.60;;;9.93;;
28848;SDS011;15981;43.292;-2.888;2022-10-10T15:17:05;22.08;;;8.98;;
28848;SDS011;15981;43.292;-2.888;2022-10-10T15:19:31;22.95;;;9.60;;
28848;SDS011;15981;43.292;-2.888;2022-10-10T15:21:57;20.38;;;9.45;;
28848;SDS011;15981;43.292;-2.888;2022-10-10T15:24:23;22.08;;;9.65;;
28848;SDS011;15981;43.292;-2.888;2022-10-10T15:26:48;24.40;;;9.73;;
28848;SDS011;15981;43.292;-2.888;2022-10-10T15:29:14;28.17;;;10.43;;
28848;SDS011;15981;43.292;-2.888;2022-10-10T15:31:40;26.05;;;9.05;;
28848;SDS011;15981;43.292;-2.888;2022-10-10T15:34:05;24.40;;;10.20;;
28848;SDS011;15981;43.292;-2.888;2022-10-10T15:36:32;19.08;;;9.80;;
28848;SDS011;15981;43.292;-2.888;2022-10-10T15:38:58;23.25;;;9.95;;
28848;SDS011;15981;43.292;-2.888;2022-10-10T15:41:24;21.52;;;10.30;;
28848;SDS011;15981;43.292;-2.888;2022-10-10T15:43:51;23.23;;;10.13;;
28848;SDS011;15981;43.292;-2.888;2022-10-10T15:46:19;24.17;;;10.25;;
28848;SDS011;15981;43.292;-2.888;2022-10-10T15:48:45;21.23;;;9.35;;
28848;SDS011;15981;43.292;-2.888;2022-10-10T15:51:11;22.23;;;9.50;;
28848;SDS011;15981;43.292;-2.888;2022-10-10T15:53:37;19.45;;;9.50;;
28848;SDS011;15981;43.292;-2.888;2022-10-10T15:56:06;24.17;;;9.85;;
28848;SDS011;15981;43.292;-2.888;2022-10-10T15:58:33;16.45;;;9.18;;
28848;SDS011;15981;43.292;-2.888;2022-10-10T16:00:59;22.98;;;9.77;;
28848;SDS011;15981;43.292;-2.888;2022-10-10T16:03:24;19.25;;;9.18;;
28848;SDS011;15981;43.292;-2.888;2022-10-10T16:05:50;24.75;;;10.05;;
28848;SDS011;15981;43.292;-2.888;2022-10-10T16:08:16;19.38;;;8.80;;
28848;SDS011;15981;43.292;-2.888;2022-10-10T16:10:43;19.92;;;8.48;;
28848;SDS011;15981;43.292;-2.888;2022-10-10T16:13:09;24.08;;;9.18;;
28848;SDS011;15981;43.292;-2.888;2022-10-10T16:15:35;24.08;;;9.73;;
28848;SDS011;15981;43.292;-2.888;2022-10-10T16:18:01;16.17;;;8.18;;